sensor_id;sensor_type;location;lat;lon;timestamp;temperature;humidity
68385;DHT22;55336;43.062;25.626;2023-07-29T00:00:57;13.60;99.90
68385;DHT22;55336;43.062;25.626;2023-07-29T00:03:23;13.50;99.90
68385;DHT22;55336;43.062;25.626;2023-07-29T00:05:49;13.50;99.90
68385;DHT22;55336;43.062;25.626;2023-07-29T00:08:15;13.50;99.90
68385;DHT22;55336;43.062;25.626;2023-07-29T00:10:42;13.50;99.90
68385;DHT22;55336;43.062;25.626;2023-07-29T00:13:08;13.40;99.90
68385;DHT22;55336;43.062;25.626;2023-07-29T00:15:34;13.40;99.90
68385;DHT22;55336;43.062;25.626;2023-07-29T00:18:00;13.40;99.90
68385;DHT22;55336;43.062;25.626;2023-07-29T00:20:26;13.30;99.90
68385;DHT22;55336;43.062;25.626;2023-07-29T00:22:53;13.30;99.90
68385;DHT22;55336;43.062;25.626;2023-07-29T00:25:21;13.30;99.90
68385;DHT22;55336;43.062;25.626;2023-07-29T00:27:47;13.40;99.90
68385;DHT22;55336;43.062;25.626;2023-07-29T00:30:13;13.40;99.90
68385;DHT22;55336;43.062;25.626;2023-07-29T00:32:38;13.30;99.90
68385;DHT22;55336;43.062;25.626;2023-07-29T00:35:05;13.30;99.90
68385;DHT22;55336;43.062;25.626;2023-07-29T00:37:31;13.30;99.90
68385;DHT22;55336;43.062;25.626;2023-07-29T00:39:57;13.30;99.90
68385;DHT22;55336;43.062;25.626;2023-07-29T00:42:24;13.20;99.90
68385;DHT22;55336;43.062;25.626;2023-07-29T00:44:53;13.20;99.90
68385;DHT22;55336;43.062;25.626;2023-07-29T00:47:19;13.10;99.90
68385;DHT22;55336;43.062;25.626;2023-07-29T00:49:46;13.20;99.90
68385;DHT22;55336;43.062;25.626;2023-07-29T00:52:11;13.10;99.90
68385;DHT22;55336;43.062;25.626;2023-07-29T00:54:41;13.10;99.90
68385;DHT22;55336;43.062;25.626;2023-07-29T00:57:08;13.00;99.90
68385;DHT22;55336;43.062;25.626;2023-07-29T00:59:36;13.00;99.90
68385;DHT22;55336;43.062;25.626;2023-07-29T01:02:02;13.00;99.90
68385;DHT22;55336;43.062;25.626;2023-07-29T01:04:28;13.00;99.90
68385;DHT22;55336;43.062;25.626;2023-07-29T01:12:24;12.90;99.90
68385;DHT22;55336;43.062;25.626;2023-07-29T01:15:01;12.90;99.90
68385;DHT22;55336;43.062;25.626;2023-07-29T01:17:51;12.90;99.90
68385;DHT22;55336;43.062;25.626;2023-07-29T01:20:19;12.90;99.90
68385;DHT22;55336;43.062;25.626;2023-07-29T01:22:46;12.80;99.90
68385;DHT22;55336;43.062;25.626;2023-07-29T01:25:13;12.80;99.90
68385;DHT22;55336;43.062;25.626;2023-07-29T01:27:42;12.80;99.90
68385;DHT22;55336;43.062;25.626;2023-07-29T01:30:08;12.80;99.90
68385;DHT22;55336;43.062;25.626;2023-07-29T01:38:49;12.80;99.90
68385;DHT22;55336;43.062;25.626;2023-07-29T01:41:17;12.70;99.90
68385;DHT22;55336;43.062;25.626;2023-07-29T01:43:43;12.70;99.90
68385;DHT22;55336;43.062;25.626;2023-07-29T01:46:11;12.60;99.90
68385;DHT22;55336;43.062;25.626;2023-07-29T01:48:40;12.60;99.90
68385;DHT22;55336;43.062;25.626;2023-07-29T01:51:06;12.60;99.90
68385;DHT22;55336;43.062;25.626;2023-07-29T01:53:32;12.60;99.90
68385;DHT22;55336;43.062;25.626;2023-07-29T01:55:58;12.60;99.90
68385;DHT22;55336;43.062;25.626;2023-07-29T01:58:25;12.60;99.90
68385;DHT22;55336;43.062;25.626;2023-07-29T02:00:51;12.60;99.90
68385;DHT22;55336;43.062;25.626;2023-07-29T02:03:16;12.50;99.90
68385;DHT22;55336;43.062;25.626;2023-07-29T02:05:43;12.50;99.90
68385;DHT22;55336;43.062;25.626;2023-07-29T02:08:10;12.50;99.90
68385;DHT22;55336;43.062;25.626;2023-07-29T02:10:36;12.50;99.90
68385;DHT22;55336;43.062;25.626;2023-07-29T02:13:02;12.50;99.90
68385;DHT22;55336;43.062;25.626;2023-07-29T02:15:28;12.50;99.90
68385;DHT22;55336;43.062;25.626;2023-07-29T02:17:53;12.40;99.90
68385;DHT22;55336;43.062;25.626;2023-07-29T02:20:19;12.40;99.90
68385;DHT22;55336;43.062;25.626;2023-07-29T02:22:45;12.40;99.90
68385;DHT22;55336;43.062;25.626;2023-07-29T02:25:11;12.40;99.90
68385;DHT22;55336;43.062;25.626;2023-07-29T02:27:37;12.40;99.90
68385;DHT22;55336;43.062;25.626;2023-07-29T02:30:03;12.30;99.90
68385;DHT22;55336;43.062;25.626;2023-07-29T02:32:29;12.40;99.90
68385;DHT22;55336;43.062;25.626;2023-07-29T02:34:55;12.30;99.90
68385;DHT22;55336;43.062;25.626;2023-07-29T02:37:21;12.30;99.90
68385;DHT22;55336;43.062;25.626;2023-07-29T02:39:47;12.30;99.90
68385;DHT22;55336;43.062;25.626;2023-07-29T02:42:13;12.30;99.90
68385;DHT22;55336;43.062;25.626;2023-07-29T02:44:39;12.30;99.90
68385;DHT22;55336;43.062;25.626;2023-07-29T02:47:05;12.30;99.90
68385;DHT22;55336;43.062;25.626;2023-07-29T02:49:31;12.20;99.90
68385;DHT22;55336;43.062;25.626;2023-07-29T02:51:57;12.30;99.90
68385;DHT22;55336;43.062;25.626;2023-07-29T02:54:23;12.30;99.90
68385;DHT22;55336;43.062;25.626;2023-07-29T02:56:50;12.30;99.90
68385;DHT22;55336;43.062;25.626;2023-07-29T02:59:16;12.30;99.90
68385;DHT22;55336;43.062;25.626;2023-07-29T03:01:42;12.30;99.90
68385;DHT22;55336;43.062;25.626;2023-07-29T03:04:08;12.30;99.90
68385;DHT22;55336;43.062;25.626;2023-07-29T03:06:34;12.20;99.90
68385;DHT22;55336;43.062;25.626;2023-07-29T03:08:59;12.30;99.90
68385;DHT22;55336;43.062;25.626;2023-07-29T03:11:26;12.20;99.90
68385;DHT22;55336;43.062;25.626;2023-07-29T03:13:52;12.20;99.90
68385;DHT22;55336;43.062;25.626;2023-07-29T03:16:18;12.20;99.90
68385;DHT22;55336;43.062;25.626;2023-07-29T03:18:43;12.20;99.90
68385;DHT22;55336;43.062;25.626;2023-07-29T03:21:10;12.20;99.90
68385;DHT22;55336;43.062;25.626;2023-07-29T03:23:36;12.20;99.90
68385;DHT22;55336;43.062;25.626;2023-07-29T03:26:03;12.20;99.90
68385;DHT22;55336;43.062;25.626;2023-07-29T03:28:41;12.20;99.90
68385;DHT22;55336;43.062;25.626;2023-07-29T03:31:08;12.20;99.90
68385;DHT22;55336;43.062;25.626;2023-07-29T03:33:34;12.20;99.90
68385;DHT22;55336;43.062;25.626;2023-07-29T03:36:00;12.30;99.90
68385;DHT22;55336;43.062;25.626;2023-07-29T03:38:26;12.30;99.90
68385;DHT22;55336;43.062;25.626;2023-07-29T03:40:51;12.30;99.90
68385;DHT22;55336;43.062;25.626;2023-07-29T03:43:19;12.30;99.90
68385;DHT22;55336;43.062;25.626;2023-07-29T03:45:44;12.40;99.90
68385;DHT22;55336;43.062;25.626;2023-07-29T03:48:10;12.40;99.90
68385;DHT22;55336;43.062;25.626;2023-07-29T03:50:36;12.50;99.90
68385;DHT22;55336;43.062;25.626;2023-07-29T03:53:02;12.60;99.90
68385;DHT22;55336;43.062;25.626;2023-07-29T03:55:28;12.60;99.90
68385;DHT22;55336;43.062;25.626;2023-07-29T03:57:58;12.70;99.90
68385;DHT22;55336;43.062;25.626;2023-07-29T04:00:24;12.70;99.90
68385;DHT22;55336;43.062;25.626;2023-07-29T04:02:50;12.80;99.90
68385;DHT22;55336;43.062;25.626;2023-07-29T04:05:17;12.90;99.90
68385;DHT22;55336;43.062;25.626;2023-07-29T04:07:43;13.00;99.90
68385;DHT22;55336;43.062;25.626;2023-07-29T04:10:08;13.00;99.90
68385;DHT22;55336;43.062;25.626;2023-07-29T04:12:34;13.10;99.90
68385;DHT22;55336;43.062;25.626;2023-07-29T04:15:00;13.20;99.90
68385;DHT22;55336;43.062;25.626;2023-07-29T04:17:26;13.40;99.90
68385;DHT22;55336;43.062;25.626;2023-07-29T04:19:52;13.50;99.90
68385;DHT22;55336;43.062;25.626;2023-07-29T04:22:18;13.70;99.90
68385;DHT22;55336;43.062;25.626;2023-07-29T04:24:44;13.90;99.90
68385;DHT22;55336;43.062;25.626;2023-07-29T04:27:09;14.00;99.90
68385;DHT22;55336;43.062;25.626;2023-07-29T04:29:36;14.30;99.90
68385;DHT22;55336;43.062;25.626;2023-07-29T04:32:02;14.60;99.90
68385;DHT22;55336;43.062;25.626;2023-07-29T04:34:29;14.80;99.90
68385;DHT22;55336;43.062;25.626;2023-07-29T04:36:54;15.20;99.90
68385;DHT22;55336;43.062;25.626;2023-07-29T04:39:20;15.30;99.90
68385;DHT22;55336;43.062;25.626;2023-07-29T04:41:46;15.50;99.90
68385;DHT22;55336;43.062;25.626;2023-07-29T04:44:12;15.70;99.90
68385;DHT22;55336;43.062;25.626;2023-07-29T04:46:37;15.90;99.90
68385;DHT22;55336;43.062;25.626;2023-07-29T04:49:04;16.20;99.90
68385;DHT22;55336;43.062;25.626;2023-07-29T04:51:30;16.20;99.90
68385;DHT22;55336;43.062;25.626;2023-07-29T04:53:57;16.50;99.90
68385;DHT22;55336;43.062;25.626;2023-07-29T04:56:23;16.90;99.90
68385;DHT22;55336;43.062;25.626;2023-07-29T04:58:49;17.20;99.90
68385;DHT22;55336;43.062;25.626;2023-07-29T05:01:15;17.20;99.90
68385;DHT22;55336;43.062;25.626;2023-07-29T05:03:41;17.30;99.90
68385;DHT22;55336;43.062;25.626;2023-07-29T05:06:07;17.40;99.90
68385;DHT22;55336;43.062;25.626;2023-07-29T05:08:33;17.60;99.90
68385;DHT22;55336;43.062;25.626;2023-07-29T05:10:59;17.80;99.90
68385;DHT22;55336;43.062;25.626;2023-07-29T05:13:25;17.60;99.90
68385;DHT22;55336;43.062;25.626;2023-07-29T05:15:51;17.80;99.90
68385;DHT22;55336;43.062;25.626;2023-07-29T05:18:17;17.90;99.90
68385;DHT22;55336;43.062;25.626;2023-07-29T05:20:43;18.10;99.90
68385;DHT22;55336;43.062;25.626;2023-07-29T05:23:09;18.20;99.90
68385;DHT22;55336;43.062;25.626;2023-07-29T05:25:34;18.50;99.90
68385;DHT22;55336;43.062;25.626;2023-07-29T05:28:00;18.70;99.90
68385;DHT22;55336;43.062;25.626;2023-07-29T05:30:27;18.90;99.90
68385;DHT22;55336;43.062;25.626;2023-07-29T05:32:56;19.20;99.90
68385;DHT22;55336;43.062;25.626;2023-07-29T05:35:23;19.50;99.90
68385;DHT22;55336;43.062;25.626;2023-07-29T05:37:49;20.00;99.90
68385;DHT22;55336;43.062;25.626;2023-07-29T05:40:14;20.10;99.90
68385;DHT22;55336;43.062;25.626;2023-07-29T05:42:40;20.50;99.90
68385;DHT22;55336;43.062;25.626;2023-07-29T05:45:07;20.80;99.90
68385;DHT22;55336;43.062;25.626;2023-07-29T05:47:33;21.30;99.90
68385;DHT22;55336;43.062;25.626;2023-07-29T05:49:59;22.20;99.90
68385;DHT22;55336;43.062;25.626;2023-07-29T05:52:27;22.70;99.90
68385;DHT22;55336;43.062;25.626;2023-07-29T05:54:53;22.90;99.90
68385;DHT22;55336;43.062;25.626;2023-07-29T05:57:19;23.20;99.90
68385;DHT22;55336;43.062;25.626;2023-07-29T05:59:44;23.80;99.90
68385;DHT22;55336;43.062;25.626;2023-07-29T06:02:10;23.70;99.90
68385;DHT22;55336;43.062;25.626;2023-07-29T06:04:38;24.10;97.60
68385;DHT22;55336;43.062;25.626;2023-07-29T06:07:04;24.40;96.00
68385;DHT22;55336;43.062;25.626;2023-07-29T06:09:29;24.70;92.50
68385;DHT22;55336;43.062;25.626;2023-07-29T06:11:55;24.90;92.50
68385;DHT22;55336;43.062;25.626;2023-07-29T06:14:21;25.60;83.30
68385;DHT22;55336;43.062;25.626;2023-07-29T06:16:47;25.40;78.20
68385;DHT22;55336;43.062;25.626;2023-07-29T06:19:13;26.00;76.30
68385;DHT22;55336;43.062;25.626;2023-07-29T06:21:38;26.10;71.80
68385;DHT22;55336;43.062;25.626;2023-07-29T06:24:04;26.60;69.00
68385;DHT22;55336;43.062;25.626;2023-07-29T06:26:30;27.60;65.20
68385;DHT22;55336;43.062;25.626;2023-07-29T06:28:56;27.80;63.00
68385;DHT22;55336;43.062;25.626;2023-07-29T06:31:22;27.90;63.20
68385;DHT22;55336;43.062;25.626;2023-07-29T06:33:48;26.90;61.90
68385;DHT22;55336;43.062;25.626;2023-07-29T06:36:14;26.40;66.80
68385;DHT22;55336;43.062;25.626;2023-07-29T06:38:39;27.00;65.20
68385;DHT22;55336;43.062;25.626;2023-07-29T06:41:06;27.50;66.50
68385;DHT22;55336;43.062;25.626;2023-07-29T06:43:32;28.10;61.00
68385;DHT22;55336;43.062;25.626;2023-07-29T06:45:58;28.30;57.30
68385;DHT22;55336;43.062;25.626;2023-07-29T06:48:23;28.20;59.90
68385;DHT22;55336;43.062;25.626;2023-07-29T06:50:50;28.10;59.20
68385;DHT22;55336;43.062;25.626;2023-07-29T06:53:16;27.80;58.60
68385;DHT22;55336;43.062;25.626;2023-07-29T06:55:42;28.20;61.20
68385;DHT22;55336;43.062;25.626;2023-07-29T06:58:08;28.40;57.50
68385;DHT22;55336;43.062;25.626;2023-07-29T07:00:35;28.80;56.20
68385;DHT22;55336;43.062;25.626;2023-07-29T07:03:01;29.50;53.70
68385;DHT22;55336;43.062;25.626;2023-07-29T07:05:27;29.40;52.80
68385;DHT22;55336;43.062;25.626;2023-07-29T07:07:52;28.80;52.30
68385;DHT22;55336;43.062;25.626;2023-07-29T07:10:19;29.50;52.50
68385;DHT22;55336;43.062;25.626;2023-07-29T07:12:45;29.50;50.80
68385;DHT22;55336;43.062;25.626;2023-07-29T07:15:11;30.30;50.70
68385;DHT22;55336;43.062;25.626;2023-07-29T07:17:37;29.90;56.60
68385;DHT22;55336;43.062;25.626;2023-07-29T07:20:03;30.60;48.30
68385;DHT22;55336;43.062;25.626;2023-07-29T07:22:29;31.20;48.10
68385;DHT22;55336;43.062;25.626;2023-07-29T07:24:55;31.80;44.70
68385;DHT22;55336;43.062;25.626;2023-07-29T07:27:21;32.00;44.90
68385;DHT22;55336;43.062;25.626;2023-07-29T07:29:47;31.90;43.00
68385;DHT22;55336;43.062;25.626;2023-07-29T07:32:13;31.40;40.50
68385;DHT22;55336;43.062;25.626;2023-07-29T07:34:39;31.30;41.10
68385;DHT22;55336;43.062;25.626;2023-07-29T07:37:05;31.90;39.70
68385;DHT22;55336;43.062;25.626;2023-07-29T07:39:32;32.80;38.90
68385;DHT22;55336;43.062;25.626;2023-07-29T07:41:58;33.60;38.00
68385;DHT22;55336;43.062;25.626;2023-07-29T07:44:32;33.60;37.70
68385;DHT22;55336;43.062;25.626;2023-07-29T07:46:58;34.10;38.30
68385;DHT22;55336;43.062;25.626;2023-07-29T07:49:24;34.60;35.00
68385;DHT22;55336;43.062;25.626;2023-07-29T07:51:50;34.00;34.80
68385;DHT22;55336;43.062;25.626;2023-07-29T07:54:16;33.50;35.50
68385;DHT22;55336;43.062;25.626;2023-07-29T07:56:43;33.50;34.30
68385;DHT22;55336;43.062;25.626;2023-07-29T07:59:09;34.50;31.30
68385;DHT22;55336;43.062;25.626;2023-07-29T08:01:35;34.90;29.70
68385;DHT22;55336;43.062;25.626;2023-07-29T08:04:02;35.50;27.90
68385;DHT22;55336;43.062;25.626;2023-07-29T08:06:29;35.80;27.30
68385;DHT22;55336;43.062;25.626;2023-07-29T08:08:57;35.80;27.10
68385;DHT22;55336;43.062;25.626;2023-07-29T08:11:23;35.70;30.00
68385;DHT22;55336;43.062;25.626;2023-07-29T08:13:49;33.60;34.70
68385;DHT22;55336;43.062;25.626;2023-07-29T08:16:15;34.00;34.60
68385;DHT22;55336;43.062;25.626;2023-07-29T08:18:41;33.60;33.50
68385;DHT22;55336;43.062;25.626;2023-07-29T08:21:07;34.00;32.20
68385;DHT22;55336;43.062;25.626;2023-07-29T08:23:35;33.90;32.60
68385;DHT22;55336;43.062;25.626;2023-07-29T08:26:03;34.60;28.70
68385;DHT22;55336;43.062;25.626;2023-07-29T08:28:37;35.50;26.10
68385;DHT22;55336;43.062;25.626;2023-07-29T08:31:04;34.60;30.90
68385;DHT22;55336;43.062;25.626;2023-07-29T08:33:31;34.90;27.00
68385;DHT22;55336;43.062;25.626;2023-07-29T08:35:59;35.10;27.50
68385;DHT22;55336;43.062;25.626;2023-07-29T08:38:25;34.90;28.70
68385;DHT22;55336;43.062;25.626;2023-07-29T08:41:06;35.70;26.40
68385;DHT22;55336;43.062;25.626;2023-07-29T08:43:39;35.10;28.00
68385;DHT22;55336;43.062;25.626;2023-07-29T08:46:05;36.00;27.20
68385;DHT22;55336;43.062;25.626;2023-07-29T08:48:42;36.40;24.90
68385;DHT22;55336;43.062;25.626;2023-07-29T08:51:12;36.80;24.50
68385;DHT22;55336;43.062;25.626;2023-07-29T08:53:40;36.10;25.20
68385;DHT22;55336;43.062;25.626;2023-07-29T08:56:07;35.70;26.70
68385;DHT22;55336;43.062;25.626;2023-07-29T08:58:35;35.70;26.50
68385;DHT22;55336;43.062;25.626;2023-07-29T09:01:01;35.70;25.60
68385;DHT22;55336;43.062;25.626;2023-07-29T09:03:27;36.00;25.70
68385;DHT22;55336;43.062;25.626;2023-07-29T09:05:57;36.40;25.60
68385;DHT22;55336;43.062;25.626;2023-07-29T09:08:26;37.00;26.70
68385;DHT22;55336;43.062;25.626;2023-07-29T09:10:52;37.50;24.70
68385;DHT22;55336;43.062;25.626;2023-07-29T09:13:19;36.70;25.10
68385;DHT22;55336;43.062;25.626;2023-07-29T09:15:46;36.70;25.20
68385;DHT22;55336;43.062;25.626;2023-07-29T09:18:17;37.10;25.60
68385;DHT22;55336;43.062;25.626;2023-07-29T09:20:43;37.10;26.60
68385;DHT22;55336;43.062;25.626;2023-07-29T09:23:10;37.00;24.20
68385;DHT22;55336;43.062;25.626;2023-07-29T09:25:36;36.80;24.90
68385;DHT22;55336;43.062;25.626;2023-07-29T09:28:10;37.10;24.40
68385;DHT22;55336;43.062;25.626;2023-07-29T09:30:37;36.80;24.10
68385;DHT22;55336;43.062;25.626;2023-07-29T09:33:04;36.80;25.00
68385;DHT22;55336;43.062;25.626;2023-07-29T09:35:32;36.70;25.10
68385;DHT22;55336;43.062;25.626;2023-07-29T09:37:58;37.00;26.00
68385;DHT22;55336;43.062;25.626;2023-07-29T09:40:24;37.20;24.40
68385;DHT22;55336;43.062;25.626;2023-07-29T09:42:51;36.40;25.10
68385;DHT22;55336;43.062;25.626;2023-07-29T09:45:27;37.00;26.10
68385;DHT22;55336;43.062;25.626;2023-07-29T09:47:53;37.30;23.70
68385;DHT22;55336;43.062;25.626;2023-07-29T09:50:29;37.90;23.00
68385;DHT22;55336;43.062;25.626;2023-07-29T09:52:56;37.90;22.30
68385;DHT22;55336;43.062;25.626;2023-07-29T09:55:24;37.80;23.00
68385;DHT22;55336;43.062;25.626;2023-07-29T09:57:59;38.20;24.50
68385;DHT22;55336;43.062;25.626;2023-07-29T10:00:32;38.20;22.50
68385;DHT22;55336;43.062;25.626;2023-07-29T10:02:58;38.10;22.10
68385;DHT22;55336;43.062;25.626;2023-07-29T10:05:28;38.20;23.00
68385;DHT22;55336;43.062;25.626;2023-07-29T10:07:56;38.80;22.40
68385;DHT22;55336;43.062;25.626;2023-07-29T10:10:22;39.30;23.60
68385;DHT22;55336;43.062;25.626;2023-07-29T10:12:48;39.50;21.20
68385;DHT22;55336;43.062;25.626;2023-07-29T10:15:15;39.10;21.80
68385;DHT22;55336;43.062;25.626;2023-07-29T10:17:41;38.90;21.50
68385;DHT22;55336;43.062;25.626;2023-07-29T10:20:09;38.20;22.90
68385;DHT22;55336;43.062;25.626;2023-07-29T10:22:40;38.50;23.30
68385;DHT22;55336;43.062;25.626;2023-07-29T10:25:17;38.40;23.40
68385;DHT22;55336;43.062;25.626;2023-07-29T10:27:48;38.60;23.00
68385;DHT22;55336;43.062;25.626;2023-07-29T10:30:15;38.90;22.70
68385;DHT22;55336;43.062;25.626;2023-07-29T10:32:45;38.40;23.80
68385;DHT22;55336;43.062;25.626;2023-07-29T10:35:16;36.80;26.40
68385;DHT22;55336;43.062;25.626;2023-07-29T10:37:47;36.40;31.40
68385;DHT22;55336;43.062;25.626;2023-07-29T10:40:16;37.20;27.70
68385;DHT22;55336;43.062;25.626;2023-07-29T10:43:09;36.90;26.40
68385;DHT22;55336;43.062;25.626;2023-07-29T10:45:42;37.30;25.80
68385;DHT22;55336;43.062;25.626;2023-07-29T10:48:13;36.50;27.70
68385;DHT22;55336;43.062;25.626;2023-07-29T10:51:30;37.20;26.90
68385;DHT22;55336;43.062;25.626;2023-07-29T10:54:13;38.20;25.40
68385;DHT22;55336;43.062;25.626;2023-07-29T10:56:41;38.00;23.50
68385;DHT22;55336;43.062;25.626;2023-07-29T11:01:45;38.60;24.10
68385;DHT22;55336;43.062;25.626;2023-07-29T11:04:27;39.50;23.90
68385;DHT22;55336;43.062;25.626;2023-07-29T11:12:36;39.10;23.90
68385;DHT22;55336;43.062;25.626;2023-07-29T11:15:17;39.10;22.60
68385;DHT22;55336;43.062;25.626;2023-07-29T11:17:45;39.00;23.50
68385;DHT22;55336;43.062;25.626;2023-07-29T11:20:12;38.70;23.70
68385;DHT22;55336;43.062;25.626;2023-07-29T11:22:39;38.70;23.20
68385;DHT22;55336;43.062;25.626;2023-07-29T11:25:07;39.10;25.50
68385;DHT22;55336;43.062;25.626;2023-07-29T11:27:35;38.60;22.40
68385;DHT22;55336;43.062;25.626;2023-07-29T11:30:03;38.60;24.30
68385;DHT22;55336;43.062;25.626;2023-07-29T11:32:35;39.00;24.00
68385;DHT22;55336;43.062;25.626;2023-07-29T11:35:22;39.70;22.30
68385;DHT22;55336;43.062;25.626;2023-07-29T11:37:48;38.80;23.30
68385;DHT22;55336;43.062;25.626;2023-07-29T11:40:16;38.90;23.20
68385;DHT22;55336;43.062;25.626;2023-07-29T11:42:43;38.20;24.80
68385;DHT22;55336;43.062;25.626;2023-07-29T11:45:09;38.70;22.80
68385;DHT22;55336;43.062;25.626;2023-07-29T11:47:36;38.70;23.60
68385;DHT22;55336;43.062;25.626;2023-07-29T11:50:04;38.50;23.20
68385;DHT22;55336;43.062;25.626;2023-07-29T11:52:53;38.50;22.40
68385;DHT22;55336;43.062;25.626;2023-07-29T11:55:21;39.00;23.50
68385;DHT22;55336;43.062;25.626;2023-07-29T11:57:51;38.60;22.60
68385;DHT22;55336;43.062;25.626;2023-07-29T12:00:17;37.20;26.30
68385;DHT22;55336;43.062;25.626;2023-07-29T12:02:45;36.50;26.30
68385;DHT22;55336;43.062;25.626;2023-07-29T12:05:13;38.00;23.80
68385;DHT22;55336;43.062;25.626;2023-07-29T12:07:41;37.40;25.70
68385;DHT22;55336;43.062;25.626;2023-07-29T12:12:59;38.20;24.10
68385;DHT22;55336;43.062;25.626;2023-07-29T12:15:29;37.50;23.50
68385;DHT22;55336;43.062;25.626;2023-07-29T12:17:57;38.20;25.00
68385;DHT22;55336;43.062;25.626;2023-07-29T12:20:34;38.10;23.50
68385;DHT22;55336;43.062;25.626;2023-07-29T12:23:05;38.10;23.40
68385;DHT22;55336;43.062;25.626;2023-07-29T12:25:35;38.70;22.80
68385;DHT22;55336;43.062;25.626;2023-07-29T12:28:07;39.60;22.80
68385;DHT22;55336;43.062;25.626;2023-07-29T12:30:41;39.00;22.20
68385;DHT22;55336;43.062;25.626;2023-07-29T12:33:35;39.50;23.10
68385;DHT22;55336;43.062;25.626;2023-07-29T12:36:06;38.40;21.70
68385;DHT22;55336;43.062;25.626;2023-07-29T12:38:32;38.40;22.70
68385;DHT22;55336;43.062;25.626;2023-07-29T12:40:57;39.00;20.60
68385;DHT22;55336;43.062;25.626;2023-07-29T12:43:25;39.90;18.80
68385;DHT22;55336;43.062;25.626;2023-07-29T12:45:52;40.50;19.70
68385;DHT22;55336;43.062;25.626;2023-07-29T12:48:18;40.20;18.90
68385;DHT22;55336;43.062;25.626;2023-07-29T12:50:46;40.70;19.40
68385;DHT22;55336;43.062;25.626;2023-07-29T12:53:12;40.80;18.10
68385;DHT22;55336;43.062;25.626;2023-07-29T12:55:38;40.80;16.60
68385;DHT22;55336;43.062;25.626;2023-07-29T12:58:05;40.80;17.10
68385;DHT22;55336;43.062;25.626;2023-07-29T13:00:31;41.30;18.30
68385;DHT22;55336;43.062;25.626;2023-07-29T13:02:56;41.00;18.00
68385;DHT22;55336;43.062;25.626;2023-07-29T13:05:27;40.70;17.90
68385;DHT22;55336;43.062;25.626;2023-07-29T13:08:06;40.50;18.10
68385;DHT22;55336;43.062;25.626;2023-07-29T13:10:32;41.00;18.70
68385;DHT22;55336;43.062;25.626;2023-07-29T13:13:00;40.60;19.50
68385;DHT22;55336;43.062;25.626;2023-07-29T13:15:27;39.90;20.20
68385;DHT22;55336;43.062;25.626;2023-07-29T13:17:53;39.90;19.90
68385;DHT22;55336;43.062;25.626;2023-07-29T13:20:19;39.60;20.90
68385;DHT22;55336;43.062;25.626;2023-07-29T13:22:45;38.50;23.70
68385;DHT22;55336;43.062;25.626;2023-07-29T13:25:12;37.80;29.10
68385;DHT22;55336;43.062;25.626;2023-07-29T13:27:38;38.20;25.10
68385;DHT22;55336;43.062;25.626;2023-07-29T13:30:05;37.90;23.20
68385;DHT22;55336;43.062;25.626;2023-07-29T13:32:32;38.40;21.40
68385;DHT22;55336;43.062;25.626;2023-07-29T13:35:03;38.70;22.10
68385;DHT22;55336;43.062;25.626;2023-07-29T13:37:32;39.40;20.00
68385;DHT22;55336;43.062;25.626;2023-07-29T13:39:59;39.40;21.60
68385;DHT22;55336;43.062;25.626;2023-07-29T13:42:25;39.50;19.30
68385;DHT22;55336;43.062;25.626;2023-07-29T13:44:50;39.30;20.80
68385;DHT22;55336;43.062;25.626;2023-07-29T13:47:16;39.00;23.10
68385;DHT22;55336;43.062;25.626;2023-07-29T13:49:43;38.90;20.20
68385;DHT22;55336;43.062;25.626;2023-07-29T13:52:09;38.90;20.20
68385;DHT22;55336;43.062;25.626;2023-07-29T13:54:34;37.80;24.00
68385;DHT22;55336;43.062;25.626;2023-07-29T13:57:02;38.60;24.70
68385;DHT22;55336;43.062;25.626;2023-07-29T13:59:30;39.70;20.00
68385;DHT22;55336;43.062;25.626;2023-07-29T14:01:56;39.90;23.80
68385;DHT22;55336;43.062;25.626;2023-07-29T14:04:22;40.20;22.90
68385;DHT22;55336;43.062;25.626;2023-07-29T14:06:48;41.00;17.80
68385;DHT22;55336;43.062;25.626;2023-07-29T14:09:14;41.20;17.00
68385;DHT22;55336;43.062;25.626;2023-07-29T14:11:42;41.70;18.90
68385;DHT22;55336;43.062;25.626;2023-07-29T14:14:14;41.00;19.90
68385;DHT22;55336;43.062;25.626;2023-07-29T14:16:41;40.80;20.50
68385;DHT22;55336;43.062;25.626;2023-07-29T14:19:07;40.00;25.60
68385;DHT22;55336;43.062;25.626;2023-07-29T14:21:33;40.10;21.00
68385;DHT22;55336;43.062;25.626;2023-07-29T14:24:00;40.30;19.70
68385;DHT22;55336;43.062;25.626;2023-07-29T14:26:26;40.50;17.30
68385;DHT22;55336;43.062;25.626;2023-07-29T14:28:52;40.50;17.90
68385;DHT22;55336;43.062;25.626;2023-07-29T14:31:20;40.30;20.30
68385;DHT22;55336;43.062;25.626;2023-07-29T14:33:48;39.70;20.10
68385;DHT22;55336;43.062;25.626;2023-07-29T14:36:16;40.20;18.40
68385;DHT22;55336;43.062;25.626;2023-07-29T14:38:42;40.00;18.60
68385;DHT22;55336;43.062;25.626;2023-07-29T14:41:09;39.90;18.10
68385;DHT22;55336;43.062;25.626;2023-07-29T14:43:35;37.80;26.00
68385;DHT22;55336;43.062;25.626;2023-07-29T14:46:01;39.10;23.40
68385;DHT22;55336;43.062;25.626;2023-07-29T14:48:27;40.00;21.40
68385;DHT22;55336;43.062;25.626;2023-07-29T14:50:54;40.20;22.00
68385;DHT22;55336;43.062;25.626;2023-07-29T14:53:20;40.10;21.90
68385;DHT22;55336;43.062;25.626;2023-07-29T14:55:45;40.20;22.60
68385;DHT22;55336;43.062;25.626;2023-07-29T14:58:11;40.10;25.30
68385;DHT22;55336;43.062;25.626;2023-07-29T15:00:38;39.90;23.40
68385;DHT22;55336;43.062;25.626;2023-07-29T15:03:04;39.70;23.50
68385;DHT22;55336;43.062;25.626;2023-07-29T15:05:32;39.90;23.20
68385;DHT22;55336;43.062;25.626;2023-07-29T15:07:58;39.90;20.50
68385;DHT22;55336;43.062;25.626;2023-07-29T15:10:25;38.20;29.80
68385;DHT22;55336;43.062;25.626;2023-07-29T15:12:51;37.50;33.10
68385;DHT22;55336;43.062;25.626;2023-07-29T15:15:17;37.50;26.90
68385;DHT22;55336;43.062;25.626;2023-07-29T15:17:43;37.50;26.20
68385;DHT22;55336;43.062;25.626;2023-07-29T15:20:10;37.30;33.00
68385;DHT22;55336;43.062;25.626;2023-07-29T15:22:37;37.30;30.10
68385;DHT22;55336;43.062;25.626;2023-07-29T15:25:04;37.80;26.80
68385;DHT22;55336;43.062;25.626;2023-07-29T15:27:30;37.90;23.40
68385;DHT22;55336;43.062;25.626;2023-07-29T15:29:56;38.00;22.60
68385;DHT22;55336;43.062;25.626;2023-07-29T15:32:22;38.00;22.50
68385;DHT22;55336;43.062;25.626;2023-07-29T15:34:49;37.80;21.80
68385;DHT22;55336;43.062;25.626;2023-07-29T15:37:15;37.90;21.60
68385;DHT22;55336;43.062;25.626;2023-07-29T15:39:41;37.90;22.10